createdAt,value
2023-01-09T00:01:29.423Z,15.77
2023-01-09T00:05:31.179Z,17.03
2023-01-09T00:09:32.900Z,17.07
2023-01-09T00:13:34.985Z,15.60
2023-01-09T00:17:36.731Z,16.30
2023-01-09T00:21:38.471Z,15.80
2023-01-09T00:25:42.476Z,17.90
2023-01-09T00:29:49.454Z,15.60
2023-01-09T00:34:03.208Z,19.13
2023-01-09T00:38:05.008Z,15.80
2023-01-09T00:42:08.418Z,16.73
2023-01-09T00:46:10.229Z,17.00
2023-01-09T00:50:19.966Z,18.60
2023-01-09T00:54:21.895Z,16.97
2023-01-09T00:58:23.624Z,19.13
2023-01-09T01:02:25.727Z,18.63
2023-01-09T01:06:46.042Z,19.73
2023-01-09T01:10:48.127Z,18.93
2023-01-09T01:14:49.970Z,19.40
2023-01-09T01:18:51.977Z,18.53
2023-01-09T01:22:53.727Z,20.23
2023-01-09T01:26:55.530Z,17.63
2023-01-09T01:30:57.466Z,19.57
2023-01-09T01:34:59.310Z,20.53
2023-01-09T01:39:01.095Z,20.73
2023-01-09T01:43:02.843Z,17.23
2023-01-09T01:47:04.653Z,17.87
2023-01-09T01:51:06.425Z,18.37
2023-01-09T01:55:08.953Z,18.90
2023-01-09T01:59:25.069Z,18.90
2023-01-09T02:03:28.417Z,16.67
2023-01-09T02:07:30.296Z,16.50
2023-01-09T02:11:32.016Z,16.83
2023-01-09T02:16:12.061Z,17.33
2023-01-09T02:20:38.723Z,17.70
2023-01-09T02:25:15.905Z,18.63
2023-01-09T02:29:31.698Z,15.97
2023-01-09T02:34:02.604Z,16.50
2023-01-09T02:38:41.552Z,17.73
2023-01-09T02:42:43.254Z,15.77
2023-01-09T02:46:45.035Z,18.87
2023-01-09T02:50:58.949Z,15.70
2023-01-09T02:55:33.196Z,16.57
2023-01-09T02:59:51.201Z,18.13
2023-01-09T03:04:11.072Z,17.10
2023-01-09T03:08:21.256Z,16.53
2023-01-09T03:12:24.668Z,19.43
2023-01-09T03:16:33.547Z,16.73
2023-01-09T03:20:35.279Z,19.13
2023-01-09T03:24:39.199Z,18.57
2023-01-09T03:28:40.898Z,18.20
2023-01-09T03:32:42.703Z,19.07
2023-01-09T03:36:44.673Z,20.23
2023-01-09T03:40:46.420Z,20.67
2023-01-09T03:44:49.448Z,20.23
2023-01-09T03:48:51.363Z,19.20
2023-01-09T03:52:56.259Z,20.77
2023-01-09T03:56:58.397Z,18.93
2023-01-09T04:01:02.197Z,26.60
2023-01-09T04:05:04.374Z,24.40
2023-01-09T04:09:06.293Z,21.87
2023-01-09T04:13:08.121Z,21.33
2023-01-09T04:17:09.892Z,22.30
2023-01-09T04:21:11.711Z,22.33
2023-01-09T04:25:13.627Z,20.07
2023-01-09T04:29:15.477Z,22.03
2023-01-09T04:33:17.383Z,18.00
2023-01-09T04:37:19.252Z,20.47
2023-01-09T04:41:39.359Z,19.93
2023-01-09T04:45:41.087Z,19.23
2023-01-09T04:49:42.855Z,17.37
2023-01-09T04:53:44.622Z,17.13
2023-01-09T04:57:46.416Z,17.10
2023-01-09T05:01:48.338Z,19.70
2023-01-09T05:05:50.243Z,17.13
2023-01-09T05:09:52.063Z,18.80
2023-01-09T05:13:54.099Z,20.63
2023-01-09T05:17:55.842Z,19.27
2023-01-09T05:21:58.994Z,20.97
2023-01-09T05:26:00.916Z,18.80
2023-01-09T05:30:02.773Z,18.23
2023-01-09T05:34:04.573Z,18.37
2023-01-09T05:38:06.266Z,16.23
2023-01-09T05:42:29.603Z,18.97
2023-01-09T05:46:34.910Z,21.60
2023-01-09T05:50:36.799Z,17.73
2023-01-09T05:54:38.654Z,17.57
2023-01-09T05:58:40.626Z,17.13
2023-01-09T06:02:42.669Z,17.33
2023-01-09T06:06:44.736Z,16.37
2023-01-09T06:10:47.415Z,14.60
2023-01-09T06:14:49.615Z,15.33
2023-01-09T06:18:51.782Z,15.47
2023-01-09T06:23:04.612Z,16.83
2023-01-09T06:27:09.887Z,16.70
2023-01-09T06:31:11.807Z,15.50
2023-01-09T06:35:14.881Z,17.33
2023-01-09T06:39:16.682Z,15.87
2023-01-09T06:43:18.436Z,16.50
2023-01-09T06:47:20.094Z,16.30
2023-01-09T06:51:21.865Z,13.37
2023-01-09T06:55:23.812Z,13.07
2023-01-09T06:59:26.033Z,12.23
2023-01-09T07:03:27.754Z,11.67
2023-01-09T07:07:29.492Z,12.03
2023-01-09T07:11:31.447Z,11.97
2023-01-09T07:15:33.165Z,12.23
2023-01-09T07:19:35.081Z,13.03
2023-01-09T07:23:36.785Z,12.17
2023-01-09T07:27:38.651Z,12.37
2023-01-09T07:31:40.500Z,14.03
2023-01-09T07:35:42.310Z,10.97
2023-01-09T07:39:44.382Z,13.87
2023-01-09T07:43:46.148Z,15.57
2023-01-09T07:47:47.870Z,16.30
2023-01-09T07:51:49.673Z,16.30
2023-01-09T07:55:51.397Z,15.73
2023-01-09T07:59:53.170Z,14.27
2023-01-09T08:03:54.902Z,14.40
2023-01-09T08:07:56.636Z,15.70
2023-01-09T08:11:58.419Z,14.20
2023-01-09T08:16:00.595Z,13.13
2023-01-09T08:20:02.800Z,17.43
2023-01-09T08:24:05.125Z,15.87
2023-01-09T08:28:06.858Z,15.93
2023-01-09T08:32:08.665Z,16.23
2023-01-09T08:36:10.602Z,15.60
2023-01-09T08:40:13.605Z,15.57
2023-01-09T08:44:33.922Z,13.90
2023-01-09T08:48:35.684Z,12.57
2023-01-09T08:52:37.476Z,15.63
2023-01-09T08:56:39.251Z,6.07
2023-01-09T09:00:41.077Z,2.10
2023-01-09T09:04:42.828Z,2.27
2023-01-09T09:08:44.561Z,2.10
2023-01-09T09:12:48.751Z,2.73
2023-01-09T09:16:50.919Z,3.27
2023-01-09T09:20:52.659Z,2.70
2023-01-09T09:24:54.435Z,2.97
2023-01-09T09:28:56.222Z,1.77
2023-01-09T09:32:58.299Z,2.83
2023-01-09T09:37:00.168Z,3.43
2023-01-09T09:41:59.107Z,1.87
2023-01-09T09:46:46.641Z,2.20
2023-01-09T09:50:51.404Z,2.00
2023-01-09T09:54:53.182Z,2.20
2023-01-09T09:59:00.004Z,2.60
2023-01-09T10:03:08.098Z,2.10
2023-01-09T10:07:22.733Z,2.03
2023-01-09T10:11:47.328Z,2.70
2023-01-09T10:16:19.353Z,1.90
2023-01-09T10:20:38.591Z,2.00
2023-01-09T10:25:21.938Z,2.50
2023-01-09T10:29:54.819Z,3.93
2023-01-09T10:34:38.421Z,3.47
2023-01-09T10:38:43.264Z,2.67
2023-01-09T10:42:59.035Z,2.47
2023-01-09T10:47:00.845Z,1.30
2023-01-09T10:51:17.648Z,2.53
2023-01-09T10:55:42.039Z,1.97
2023-01-09T10:59:43.772Z,1.10
2023-01-09T11:03:48.604Z,1.00
2023-01-09T11:08:01.135Z,2.00
2023-01-09T11:12:40.946Z,1.10
2023-01-09T11:17:06.316Z,1.07
2023-01-09T11:21:40.204Z,0.97
2023-01-09T11:25:42.597Z,1.33
2023-01-09T11:29:44.400Z,1.20
2023-01-09T11:33:47.882Z,0.77
2023-01-09T11:38:02.496Z,1.73
2023-01-09T11:42:06.538Z,1.77
2023-01-09T11:46:11.812Z,0.80
2023-01-09T11:50:21.958Z,1.20
2023-01-09T11:54:28.572Z,0.70
2023-01-09T11:58:35.099Z,1.53
2023-01-09T12:03:52.767Z,1.43
2023-01-09T12:08:15.606Z,1.10
2023-01-09T12:12:43.873Z,0.97
2023-01-09T12:17:22.905Z,1.00
2023-01-09T12:21:34.812Z,2.63
2023-01-09T12:26:00.776Z,1.37
2023-01-09T12:31:01.393Z,0.70
2023-01-09T12:35:22.620Z,2.43
2023-01-09T12:40:04.999Z,1.10
2023-01-09T12:44:51.794Z,1.07
2023-01-09T12:49:14.501Z,2.30
2023-01-09T12:53:28.978Z,0.73
2023-01-09T12:57:34.749Z,0.80
2023-01-09T13:01:42.141Z,1.10
2023-01-09T13:05:51.571Z,1.70
2023-01-09T13:10:19.559Z,1.40
2023-01-09T13:14:39.765Z,1.20
2023-01-09T13:18:56.205Z,1.00
2023-01-09T13:22:58.169Z,0.80
2023-01-09T13:27:07.382Z,0.60
2023-01-09T13:31:27.974Z,1.60
2023-01-09T13:35:32.336Z,1.17
2023-01-09T13:39:37.955Z,1.60
2023-01-09T13:44:00.899Z,2.47
2023-01-09T13:48:09.102Z,2.27
2023-01-09T13:52:40.377Z,6.07
2023-01-09T13:57:17.077Z,0.70
2023-01-09T14:01:24.918Z,2.13
2023-01-09T14:05:27.150Z,2.10
2023-01-09T14:09:29.130Z,1.90
2023-01-09T14:13:43.505Z,2.60
2023-01-09T14:17:45.484Z,0.70
2023-01-09T14:21:53.119Z,0.93
2023-01-09T14:25:55.625Z,1.40
2023-01-09T14:30:27.451Z,1.20
2023-01-09T14:34:32.498Z,1.40
2023-01-09T14:38:56.346Z,2.17
2023-01-09T14:43:04.980Z,1.40
2023-01-09T14:47:24.195Z,2.63
2023-01-09T14:51:37.468Z,1.20
2023-01-09T14:55:57.938Z,1.37
2023-01-09T15:04:43.228Z,0.90
2023-01-09T15:08:48.196Z,1.50
2023-01-09T15:12:52.978Z,3.50
2023-01-09T15:16:54.735Z,1.07
2023-01-09T15:21:00.610Z,1.30
2023-01-09T15:25:30.544Z,2.40
2023-01-09T15:29:35.884Z,1.23
2023-01-09T15:33:39.443Z,1.33
2023-01-09T15:37:41.285Z,2.07
2023-01-09T15:42:01.433Z,1.40
2023-01-09T15:46:03.242Z,1.03
2023-01-09T15:50:05.839Z,1.73
2023-01-09T15:54:29.780Z,1.70
2023-01-09T15:58:39.188Z,3.10
2023-01-09T16:03:04.888Z,1.90
2023-01-09T16:07:15.386Z,7.97
2023-01-09T16:11:30.158Z,2.67
2023-01-09T16:15:33.576Z,3.03
2023-01-09T16:19:41.393Z,2.30
2023-01-09T16:23:44.499Z,4.23
2023-01-09T16:27:46.335Z,5.77
2023-01-09T16:31:48.136Z,3.77
2023-01-09T16:35:50.720Z,3.93
2023-01-09T16:40:24.056Z,1.73
2023-01-09T16:44:25.949Z,3.00
2023-01-09T16:48:28.162Z,3.77
2023-01-09T16:52:29.980Z,3.83
2023-01-09T16:56:33.181Z,4.63
2023-01-09T17:00:35.021Z,5.63
2023-01-09T17:04:36.773Z,3.77
2023-01-09T17:08:38.518Z,2.77
2023-01-09T17:12:42.182Z,3.00
2023-01-09T17:16:46.101Z,4.43
2023-01-09T17:20:53.526Z,3.00
2023-01-09T17:25:13.933Z,2.67
2023-01-09T17:29:18.421Z,2.97
2023-01-09T17:33:20.438Z,2.73
2023-01-09T17:37:22.736Z,2.10
2023-01-09T17:41:32.616Z,3.27
2023-01-09T17:45:38.399Z,2.30
2023-01-09T17:49:41.772Z,2.10
2023-01-09T17:53:43.606Z,2.87
2023-01-09T17:57:54.979Z,2.70
2023-01-09T18:02:59.009Z,3.53
2023-01-09T18:07:03.645Z,5.83
2023-01-09T18:11:10.298Z,6.83
2023-01-09T18:15:12.265Z,9.70
2023-01-09T18:19:17.474Z,8.20
2023-01-09T18:23:25.780Z,6.87
2023-01-09T18:27:27.775Z,6.50
2023-01-09T18:31:35.632Z,3.97
2023-01-09T18:35:46.461Z,4.53
2023-01-09T18:39:50.770Z,4.30
2023-01-09T18:43:57.732Z,6.17
2023-01-09T18:48:03.776Z,3.80
2023-01-09T18:52:08.785Z,4.37
2023-01-09T18:56:12.922Z,6.03
2023-01-09T19:00:28.266Z,3.80
2023-01-09T19:04:33.134Z,3.17
2023-01-09T19:08:35.892Z,4.17
2023-01-09T19:12:45.672Z,3.97
2023-01-09T19:16:48.063Z,2.30
2023-01-09T19:20:58.562Z,2.97
2023-01-09T19:25:14.457Z,1.63
2023-01-09T19:29:30.657Z,3.53
2023-01-09T19:33:37.863Z,2.80
2023-01-09T19:37:40.133Z,2.73
2023-01-09T19:46:42.914Z,2.70
2023-01-09T19:50:53.012Z,2.63
2023-01-09T19:54:55.185Z,2.77
2023-01-09T20:04:13.880Z,1.90
2023-01-09T20:08:17.402Z,1.67
2023-01-09T20:12:21.549Z,2.40
2023-01-09T20:16:31.022Z,2.73
2023-01-09T20:20:38.072Z,2.07
2023-01-09T20:24:50.139Z,1.47
2023-01-09T20:28:52.967Z,2.40
2023-01-09T20:33:00.540Z,2.40
2023-01-09T20:37:04.843Z,1.83
2023-01-09T20:41:12.675Z,2.00
2023-01-09T20:45:17.719Z,2.97
2023-01-09T20:49:19.784Z,1.40
2023-01-09T20:53:23.993Z,1.40
2023-01-09T20:57:25.948Z,2.03
2023-01-09T21:01:28.128Z,1.00
2023-01-09T21:05:29.984Z,1.97
2023-01-09T21:09:31.905Z,2.37
2023-01-09T21:13:33.708Z,2.33
2023-01-09T21:17:39.809Z,2.40
2023-01-09T21:21:41.614Z,3.00
2023-01-09T21:25:47.445Z,2.00
2023-01-09T21:29:54.282Z,2.07
2023-01-09T21:33:56.308Z,1.30
2023-01-09T21:37:58.270Z,1.30
2023-01-09T21:42:18.435Z,1.70
2023-01-09T21:46:38.671Z,1.53
2023-01-09T21:50:41.227Z,1.20
2023-01-09T21:54:43.178Z,2.70
2023-01-09T21:58:44.956Z,1.63
2023-01-09T22:02:46.773Z,1.73
2023-01-09T22:06:48.576Z,1.70
2023-01-09T22:10:58.843Z,1.27
2023-01-09T22:15:00.572Z,1.77
2023-01-09T22:19:02.495Z,2.00
2023-01-09T22:23:04.213Z,1.80
2023-01-09T22:27:06.085Z,1.70
2023-01-09T22:31:13.866Z,2.20
2023-01-09T22:35:15.823Z,1.23
2023-01-09T22:39:18.853Z,2.83
2023-01-09T22:43:20.592Z,2.13
2023-01-09T22:47:22.765Z,3.10
2023-01-09T22:51:24.699Z,2.03
2023-01-09T22:55:26.630Z,1.40
2023-01-09T22:59:28.998Z,1.90
2023-01-09T23:03:31.536Z,2.23
2023-01-09T23:07:33.345Z,1.67
2023-01-09T23:11:53.488Z,2.20
2023-01-09T23:15:55.217Z,1.30
2023-01-09T23:19:56.943Z,1.87
2023-01-09T23:23:58.680Z,1.07
2023-01-09T23:28:00.449Z,2.37
2023-01-09T23:32:02.271Z,2.10
2023-01-09T23:36:04.526Z,1.67
2023-01-09T23:40:06.833Z,2.03
2023-01-09T23:44:08.770Z,1.57
2023-01-09T23:48:15.106Z,2.53
2023-01-09T23:52:17.018Z,2.83
2023-01-09T23:56:18.733Z,1.73
